sensor_id;sensor_type;location;lat;lon;timestamp;temperature;humidity
25154;DHT22;47555;51.038;6.280;2023-05-09T00:00:11;15.20;99.90
25154;DHT22;47555;51.038;6.280;2023-05-09T00:02:38;15.10;99.90
25154;DHT22;47555;51.038;6.280;2023-05-09T00:05:04;15.10;99.90
25154;DHT22;47555;51.038;6.280;2023-05-09T00:07:32;15.20;99.90
25154;DHT22;47555;51.038;6.280;2023-05-09T00:09:58;15.10;99.90
25154;DHT22;47555;51.038;6.280;2023-05-09T00:12:25;15.10;99.90
25154;DHT22;47555;51.038;6.280;2023-05-09T00:14:51;15.10;99.90
25154;DHT22;47555;51.038;6.280;2023-05-09T00:17:19;15.10;99.90
25154;DHT22;47555;51.038;6.280;2023-05-09T00:19:47;15.10;99.90
25154;DHT22;47555;51.038;6.280;2023-05-09T00:22:13;15.10;99.90
25154;DHT22;47555;51.038;6.280;2023-05-09T00:24:38;15.10;99.90
25154;DHT22;47555;51.038;6.280;2023-05-09T00:27:04;15.10;99.90
25154;DHT22;47555;51.038;6.280;2023-05-09T00:29:29;15.10;99.90
25154;DHT22;47555;51.038;6.280;2023-05-09T00:31:55;15.10;99.90
25154;DHT22;47555;51.038;6.280;2023-05-09T00:34:20;15.10;99.90
25154;DHT22;47555;51.038;6.280;2023-05-09T00:36:46;15.10;99.90
25154;DHT22;47555;51.038;6.280;2023-05-09T00:39:12;15.00;99.90
25154;DHT22;47555;51.038;6.280;2023-05-09T00:41:37;15.00;99.90
25154;DHT22;47555;51.038;6.280;2023-05-09T00:44:03;15.00;99.90
25154;DHT22;47555;51.038;6.280;2023-05-09T00:46:29;15.10;99.90
25154;DHT22;47555;51.038;6.280;2023-05-09T00:48:54;15.00;99.90
25154;DHT22;47555;51.038;6.280;2023-05-09T00:51:21;15.00;99.90
25154;DHT22;47555;51.038;6.280;2023-05-09T00:53:47;15.00;99.90
25154;DHT22;47555;51.038;6.280;2023-05-09T00:56:13;15.00;99.90
25154;DHT22;47555;51.038;6.280;2023-05-09T00:58:39;15.00;99.90
25154;DHT22;47555;51.038;6.280;2023-05-09T01:01:05;15.00;99.90
25154;DHT22;47555;51.038;6.280;2023-05-09T01:03:31;15.00;99.90
25154;DHT22;47555;51.038;6.280;2023-05-09T01:08:57;15.00;99.90
25154;DHT22;47555;51.038;6.280;2023-05-09T01:14:23;15.00;99.90
25154;DHT22;47555;51.038;6.280;2023-05-09T01:21:57;15.00;99.90
25154;DHT22;47555;51.038;6.280;2023-05-09T01:24:32;14.90;99.90
25154;DHT22;47555;51.038;6.280;2023-05-09T01:29:56;14.90;99.90
25154;DHT22;47555;51.038;6.280;2023-05-09T01:32:23;14.90;99.90
25154;DHT22;47555;51.038;6.280;2023-05-09T01:34:51;14.90;99.90
25154;DHT22;47555;51.038;6.280;2023-05-09T01:37:23;14.90;99.90
25154;DHT22;47555;51.038;6.280;2023-05-09T01:39:52;14.90;99.90
25154;DHT22;47555;51.038;6.280;2023-05-09T01:42:19;14.90;99.90
25154;DHT22;47555;51.038;6.280;2023-05-09T01:44:46;14.90;99.90
25154;DHT22;47555;51.038;6.280;2023-05-09T01:47:13;14.90;99.90
25154;DHT22;47555;51.038;6.280;2023-05-09T01:49:41;14.90;99.90
25154;DHT22;47555;51.038;6.280;2023-05-09T01:52:10;14.90;99.90
25154;DHT22;47555;51.038;6.280;2023-05-09T01:54:36;14.90;99.90
25154;DHT22;47555;51.038;6.280;2023-05-09T01:57:03;14.90;99.90
25154;DHT22;47555;51.038;6.280;2023-05-09T01:59:30;15.00;99.90
25154;DHT22;47555;51.038;6.280;2023-05-09T02:01:57;15.00;99.90
25154;DHT22;47555;51.038;6.280;2023-05-09T02:04:27;15.00;99.90
25154;DHT22;47555;51.038;6.280;2023-05-09T02:06:53;14.90;99.90
25154;DHT22;47555;51.038;6.280;2023-05-09T02:09:20;15.00;99.90
25154;DHT22;47555;51.038;6.280;2023-05-09T02:11:45;15.00;99.90
25154;DHT22;47555;51.038;6.280;2023-05-09T02:14:12;15.00;99.90
25154;DHT22;47555;51.038;6.280;2023-05-09T02:16:38;15.00;99.90
25154;DHT22;47555;51.038;6.280;2023-05-09T02:19:04;15.00;99.90
25154;DHT22;47555;51.038;6.280;2023-05-09T02:21:29;15.00;99.90
25154;DHT22;47555;51.038;6.280;2023-05-09T02:23:56;15.00;99.90
25154;DHT22;47555;51.038;6.280;2023-05-09T02:26:21;15.00;99.90
25154;DHT22;47555;51.038;6.280;2023-05-09T02:28:47;15.00;99.90
25154;DHT22;47555;51.038;6.280;2023-05-09T02:31:15;15.00;99.90
25154;DHT22;47555;51.038;6.280;2023-05-09T02:33:41;15.00;99.90
25154;DHT22;47555;51.038;6.280;2023-05-09T02:36:09;15.00;99.90
25154;DHT22;47555;51.038;6.280;2023-05-09T02:38:35;14.90;99.90
25154;DHT22;47555;51.038;6.280;2023-05-09T02:41:01;14.90;99.90
25154;DHT22;47555;51.038;6.280;2023-05-09T02:43:26;15.00;99.90
25154;DHT22;47555;51.038;6.280;2023-05-09T02:45:52;15.00;99.90
25154;DHT22;47555;51.038;6.280;2023-05-09T02:48:17;15.00;99.90
25154;DHT22;47555;51.038;6.280;2023-05-09T02:50:43;15.00;99.90
25154;DHT22;47555;51.038;6.280;2023-05-09T02:53:10;15.00;99.90
25154;DHT22;47555;51.038;6.280;2023-05-09T02:55:35;15.00;99.90
25154;DHT22;47555;51.038;6.280;2023-05-09T02:58:01;14.90;99.90
25154;DHT22;47555;51.038;6.280;2023-05-09T03:00:26;14.90;99.90
25154;DHT22;47555;51.038;6.280;2023-05-09T03:02:52;15.00;99.90
25154;DHT22;47555;51.038;6.280;2023-05-09T03:05:18;15.00;99.90
25154;DHT22;47555;51.038;6.280;2023-05-09T03:07:44;15.00;99.90
25154;DHT22;47555;51.038;6.280;2023-05-09T03:10:10;14.90;99.90
25154;DHT22;47555;51.038;6.280;2023-05-09T03:12:37;14.90;99.90
25154;DHT22;47555;51.038;6.280;2023-05-09T03:15:06;14.90;99.90
25154;DHT22;47555;51.038;6.280;2023-05-09T03:17:32;14.90;99.90
25154;DHT22;47555;51.038;6.280;2023-05-09T03:19:57;14.90;99.90
25154;DHT22;47555;51.038;6.280;2023-05-09T03:22:23;14.90;99.90
25154;DHT22;47555;51.038;6.280;2023-05-09T03:24:48;14.90;99.90
25154;DHT22;47555;51.038;6.280;2023-05-09T03:27:14;14.90;99.90
25154;DHT22;47555;51.038;6.280;2023-05-09T03:29:39;14.90;99.90
25154;DHT22;47555;51.038;6.280;2023-05-09T03:32:05;14.90;99.90
25154;DHT22;47555;51.038;6.280;2023-05-09T03:34:30;14.90;99.90
25154;DHT22;47555;51.038;6.280;2023-05-09T03:36:57;14.90;99.90
25154;DHT22;47555;51.038;6.280;2023-05-09T03:39:22;14.90;99.90
25154;DHT22;47555;51.038;6.280;2023-05-09T03:41:48;14.90;99.90
25154;DHT22;47555;51.038;6.280;2023-05-09T03:44:13;14.80;99.90
25154;DHT22;47555;51.038;6.280;2023-05-09T03:46:39;14.80;99.90
25154;DHT22;47555;51.038;6.280;2023-05-09T03:49:05;14.80;99.90
25154;DHT22;47555;51.038;6.280;2023-05-09T03:51:30;14.80;99.90
25154;DHT22;47555;51.038;6.280;2023-05-09T03:53:56;14.70;99.90
25154;DHT22;47555;51.038;6.280;2023-05-09T03:56:22;14.70;99.90
25154;DHT22;47555;51.038;6.280;2023-05-09T03:58:48;14.70;99.90
25154;DHT22;47555;51.038;6.280;2023-05-09T04:01:14;14.60;99.90
25154;DHT22;47555;51.038;6.280;2023-05-09T04:03:40;14.60;99.90
25154;DHT22;47555;51.038;6.280;2023-05-09T04:06:06;14.60;99.90
25154;DHT22;47555;51.038;6.280;2023-05-09T04:08:32;14.60;99.90
25154;DHT22;47555;51.038;6.280;2023-05-09T04:10:58;14.50;99.90
25154;DHT22;47555;51.038;6.280;2023-05-09T04:13:24;14.50;99.90
25154;DHT22;47555;51.038;6.280;2023-05-09T04:15:49;14.60;99.90
25154;DHT22;47555;51.038;6.280;2023-05-09T04:18:15;14.50;99.90
25154;DHT22;47555;51.038;6.280;2023-05-09T04:20:41;14.60;99.90
25154;DHT22;47555;51.038;6.280;2023-05-09T04:23:06;14.60;99.90
25154;DHT22;47555;51.038;6.280;2023-05-09T04:25:32;14.60;99.90
25154;DHT22;47555;51.038;6.280;2023-05-09T04:27:58;14.60;99.90
25154;DHT22;47555;51.038;6.280;2023-05-09T04:30:24;14.60;99.90
25154;DHT22;47555;51.038;6.280;2023-05-09T04:32:52;14.60;99.90
25154;DHT22;47555;51.038;6.280;2023-05-09T04:35:18;14.70;99.90
25154;DHT22;47555;51.038;6.280;2023-05-09T04:37:43;14.60;99.90
25154;DHT22;47555;51.038;6.280;2023-05-09T04:40:09;14.70;99.90
25154;DHT22;47555;51.038;6.280;2023-05-09T04:42:35;14.70;99.90
25154;DHT22;47555;51.038;6.280;2023-05-09T04:45:01;14.70;99.90
25154;DHT22;47555;51.038;6.280;2023-05-09T04:47:27;14.70;99.90
25154;DHT22;47555;51.038;6.280;2023-05-09T04:49:53;14.70;99.90
25154;DHT22;47555;51.038;6.280;2023-05-09T04:52:18;14.80;99.90
25154;DHT22;47555;51.038;6.280;2023-05-09T04:54:44;14.80;99.90
25154;DHT22;47555;51.038;6.280;2023-05-09T04:57:09;14.80;99.90
25154;DHT22;47555;51.038;6.280;2023-05-09T04:59:35;14.90;99.90
25154;DHT22;47555;51.038;6.280;2023-05-09T05:02:01;14.90;99.90
25154;DHT22;47555;51.038;6.280;2023-05-09T05:04:26;14.90;99.90
25154;DHT22;47555;51.038;6.280;2023-05-09T05:06:52;15.00;99.90
25154;DHT22;47555;51.038;6.280;2023-05-09T05:09:18;15.00;99.90
25154;DHT22;47555;51.038;6.280;2023-05-09T05:11:43;15.00;99.90
25154;DHT22;47555;51.038;6.280;2023-05-09T05:14:09;15.00;99.90
25154;DHT22;47555;51.038;6.280;2023-05-09T05:16:34;15.00;99.90
25154;DHT22;47555;51.038;6.280;2023-05-09T05:19:00;15.10;99.90
25154;DHT22;47555;51.038;6.280;2023-05-09T05:21:25;15.00;99.90
25154;DHT22;47555;51.038;6.280;2023-05-09T05:23:51;15.00;99.90
25154;DHT22;47555;51.038;6.280;2023-05-09T05:26:16;15.00;99.90
25154;DHT22;47555;51.038;6.280;2023-05-09T05:28:42;15.00;99.90
25154;DHT22;47555;51.038;6.280;2023-05-09T05:31:07;15.00;99.90
25154;DHT22;47555;51.038;6.280;2023-05-09T05:33:33;15.10;99.90
25154;DHT22;47555;51.038;6.280;2023-05-09T05:35:58;15.00;99.90
25154;DHT22;47555;51.038;6.280;2023-05-09T05:38:24;15.10;99.90
25154;DHT22;47555;51.038;6.280;2023-05-09T05:40:49;15.10;99.90
25154;DHT22;47555;51.038;6.280;2023-05-09T05:43:15;15.10;99.90
25154;DHT22;47555;51.038;6.280;2023-05-09T05:45:40;15.10;99.90
25154;DHT22;47555;51.038;6.280;2023-05-09T05:48:06;15.20;99.90
25154;DHT22;47555;51.038;6.280;2023-05-09T05:50:31;15.20;99.90
25154;DHT22;47555;51.038;6.280;2023-05-09T05:52:57;15.20;99.90
25154;DHT22;47555;51.038;6.280;2023-05-09T05:55:22;15.30;99.90
25154;DHT22;47555;51.038;6.280;2023-05-09T05:57:48;15.30;99.90
25154;DHT22;47555;51.038;6.280;2023-05-09T06:00:14;15.40;99.90
25154;DHT22;47555;51.038;6.280;2023-05-09T06:02:43;15.50;99.90
25154;DHT22;47555;51.038;6.280;2023-05-09T06:05:10;15.50;99.90
25154;DHT22;47555;51.038;6.280;2023-05-09T06:07:35;15.60;99.90
25154;DHT22;47555;51.038;6.280;2023-05-09T06:10:01;15.60;99.90
25154;DHT22;47555;51.038;6.280;2023-05-09T06:12:26;15.70;99.90
25154;DHT22;47555;51.038;6.280;2023-05-09T06:14:52;15.70;99.90
25154;DHT22;47555;51.038;6.280;2023-05-09T06:17:17;15.80;99.90
25154;DHT22;47555;51.038;6.280;2023-05-09T06:19:43;15.90;99.90
25154;DHT22;47555;51.038;6.280;2023-05-09T06:22:09;15.80;99.90
25154;DHT22;47555;51.038;6.280;2023-05-09T06:24:35;15.80;99.90
25154;DHT22;47555;51.038;6.280;2023-05-09T06:27:01;15.80;99.90
25154;DHT22;47555;51.038;6.280;2023-05-09T06:29:26;15.90;99.90
25154;DHT22;47555;51.038;6.280;2023-05-09T06:31:52;15.90;99.90
25154;DHT22;47555;51.038;6.280;2023-05-09T06:34:17;16.00;99.90
25154;DHT22;47555;51.038;6.280;2023-05-09T06:36:43;16.00;99.90
25154;DHT22;47555;51.038;6.280;2023-05-09T06:39:08;16.20;99.90
25154;DHT22;47555;51.038;6.280;2023-05-09T06:41:34;16.30;99.90
25154;DHT22;47555;51.038;6.280;2023-05-09T06:44:00;16.40;99.90
25154;DHT22;47555;51.038;6.280;2023-05-09T06:46:27;16.40;99.90
25154;DHT22;47555;51.038;6.280;2023-05-09T06:48:52;16.60;99.90
25154;DHT22;47555;51.038;6.280;2023-05-09T06:51:18;16.70;99.90
25154;DHT22;47555;51.038;6.280;2023-05-09T06:53:43;16.90;99.90
25154;DHT22;47555;51.038;6.280;2023-05-09T06:56:09;17.10;99.90
25154;DHT22;47555;51.038;6.280;2023-05-09T06:58:35;17.30;99.90
25154;DHT22;47555;51.038;6.280;2023-05-09T07:01:01;17.60;99.90
25154;DHT22;47555;51.038;6.280;2023-05-09T07:03:26;17.80;99.90
25154;DHT22;47555;51.038;6.280;2023-05-09T07:05:52;18.00;99.90
25154;DHT22;47555;51.038;6.280;2023-05-09T07:08:19;18.10;96.60
25154;DHT22;47555;51.038;6.280;2023-05-09T07:10:44;18.20;98.50
25154;DHT22;47555;51.038;6.280;2023-05-09T07:13:10;18.30;97.80
25154;DHT22;47555;51.038;6.280;2023-05-09T07:15:35;18.30;98.10
25154;DHT22;47555;51.038;6.280;2023-05-09T07:18:01;18.40;96.80
25154;DHT22;47555;51.038;6.280;2023-05-09T07:20:26;18.50;96.70
25154;DHT22;47555;51.038;6.280;2023-05-09T07:22:52;18.60;96.60
25154;DHT22;47555;51.038;6.280;2023-05-09T07:25:17;18.60;96.10
25154;DHT22;47555;51.038;6.280;2023-05-09T07:27:43;18.70;97.70
25154;DHT22;47555;51.038;6.280;2023-05-09T07:30:08;18.80;96.80
25154;DHT22;47555;51.038;6.280;2023-05-09T07:32:35;19.00;92.30
25154;DHT22;47555;51.038;6.280;2023-05-09T07:35:01;19.00;92.90
25154;DHT22;47555;51.038;6.280;2023-05-09T07:37:27;19.10;95.20
25154;DHT22;47555;51.038;6.280;2023-05-09T07:39:53;19.20;92.30
25154;DHT22;47555;51.038;6.280;2023-05-09T07:42:18;19.10;93.20
25154;DHT22;47555;51.038;6.280;2023-05-09T07:44:44;19.40;93.80
25154;DHT22;47555;51.038;6.280;2023-05-09T07:47:09;19.60;90.30
25154;DHT22;47555;51.038;6.280;2023-05-09T07:49:35;19.70;89.10
25154;DHT22;47555;51.038;6.280;2023-05-09T07:52:01;19.90;89.20
25154;DHT22;47555;51.038;6.280;2023-05-09T07:54:26;20.00;85.80
25154;DHT22;47555;51.038;6.280;2023-05-09T07:56:52;20.10;83.60
25154;DHT22;47555;51.038;6.280;2023-05-09T07:59:18;19.90;84.10
25154;DHT22;47555;51.038;6.280;2023-05-09T08:01:43;19.90;85.70
25154;DHT22;47555;51.038;6.280;2023-05-09T08:04:09;19.80;85.20
25154;DHT22;47555;51.038;6.280;2023-05-09T08:06:35;19.80;84.40
25154;DHT22;47555;51.038;6.280;2023-05-09T08:09:01;19.80;85.80
25154;DHT22;47555;51.038;6.280;2023-05-09T08:11:26;19.70;84.70
25154;DHT22;47555;51.038;6.280;2023-05-09T08:13:52;19.80;85.50
25154;DHT22;47555;51.038;6.280;2023-05-09T08:16:18;19.80;85.40
25154;DHT22;47555;51.038;6.280;2023-05-09T08:18:44;19.90;85.00
25154;DHT22;47555;51.038;6.280;2023-05-09T08:21:09;19.90;81.00
25154;DHT22;47555;51.038;6.280;2023-05-09T08:23:35;20.10;84.90
25154;DHT22;47555;51.038;6.280;2023-05-09T08:26:00;20.20;84.30
25154;DHT22;47555;51.038;6.280;2023-05-09T08:28:26;20.40;85.70
25154;DHT22;47555;51.038;6.280;2023-05-09T08:30:55;20.60;84.20
25154;DHT22;47555;51.038;6.280;2023-05-09T08:33:22;20.80;77.60
25154;DHT22;47555;51.038;6.280;2023-05-09T08:35:51;20.90;79.60
25154;DHT22;47555;51.038;6.280;2023-05-09T08:38:17;20.90;76.90
25154;DHT22;47555;51.038;6.280;2023-05-09T08:40:43;20.70;77.70
25154;DHT22;47555;51.038;6.280;2023-05-09T08:43:09;20.70;75.80
25154;DHT22;47555;51.038;6.280;2023-05-09T08:45:44;20.60;79.50
25154;DHT22;47555;51.038;6.280;2023-05-09T08:48:12;20.50;79.70
25154;DHT22;47555;51.038;6.280;2023-05-09T08:50:39;20.30;79.20
25154;DHT22;47555;51.038;6.280;2023-05-09T08:53:05;20.20;83.30
25154;DHT22;47555;51.038;6.280;2023-05-09T08:55:31;20.00;83.80
25154;DHT22;47555;51.038;6.280;2023-05-09T08:57:57;19.90;85.50
25154;DHT22;47555;51.038;6.280;2023-05-09T09:00:24;19.80;86.60
25154;DHT22;47555;51.038;6.280;2023-05-09T09:02:50;19.80;86.80
25154;DHT22;47555;51.038;6.280;2023-05-09T09:05:17;19.80;86.10
25154;DHT22;47555;51.038;6.280;2023-05-09T09:07:44;19.70;84.70
25154;DHT22;47555;51.038;6.280;2023-05-09T09:10:10;19.70;84.00
25154;DHT22;47555;51.038;6.280;2023-05-09T09:12:36;19.60;84.80
25154;DHT22;47555;51.038;6.280;2023-05-09T09:15:04;19.60;85.80
25154;DHT22;47555;51.038;6.280;2023-05-09T09:17:32;19.70;88.00
25154;DHT22;47555;51.038;6.280;2023-05-09T09:20:02;19.90;83.70
25154;DHT22;47555;51.038;6.280;2023-05-09T09:22:32;20.00;81.80
25154;DHT22;47555;51.038;6.280;2023-05-09T09:25:01;20.10;84.10
25154;DHT22;47555;51.038;6.280;2023-05-09T09:27:28;20.20;83.50
25154;DHT22;47555;51.038;6.280;2023-05-09T09:29:53;20.30;84.30
25154;DHT22;47555;51.038;6.280;2023-05-09T09:32:19;20.40;84.50
25154;DHT22;47555;51.038;6.280;2023-05-09T09:35:03;20.50;80.50
25154;DHT22;47555;51.038;6.280;2023-05-09T09:37:32;20.60;83.20
25154;DHT22;47555;51.038;6.280;2023-05-09T09:39:58;20.80;81.80
25154;DHT22;47555;51.038;6.280;2023-05-09T09:42:24;21.00;77.10
25154;DHT22;47555;51.038;6.280;2023-05-09T09:45:00;21.00;77.50
25154;DHT22;47555;51.038;6.280;2023-05-09T09:47:32;21.30;79.70
25154;DHT22;47555;51.038;6.280;2023-05-09T09:49:58;21.60;75.00
25154;DHT22;47555;51.038;6.280;2023-05-09T09:52:33;21.70;74.80
25154;DHT22;47555;51.038;6.280;2023-05-09T09:54:59;21.70;77.40
25154;DHT22;47555;51.038;6.280;2023-05-09T09:57:35;21.60;74.10
25154;DHT22;47555;51.038;6.280;2023-05-09T10:00:02;21.60;73.30
25154;DHT22;47555;51.038;6.280;2023-05-09T10:02:28;21.40;70.20
25154;DHT22;47555;51.038;6.280;2023-05-09T10:04:53;21.30;72.40
25154;DHT22;47555;51.038;6.280;2023-05-09T10:07:21;21.00;72.90
25154;DHT22;47555;51.038;6.280;2023-05-09T10:09:48;20.90;77.60
25154;DHT22;47555;51.038;6.280;2023-05-09T10:12:14;20.80;77.50
25154;DHT22;47555;51.038;6.280;2023-05-09T10:14:44;20.80;77.80
25154;DHT22;47555;51.038;6.280;2023-05-09T10:17:12;20.90;77.20
25154;DHT22;47555;51.038;6.280;2023-05-09T10:19:43;20.90;76.40
25154;DHT22;47555;51.038;6.280;2023-05-09T10:22:11;21.00;76.00
25154;DHT22;47555;51.038;6.280;2023-05-09T10:24:54;21.00;77.60
25154;DHT22;47555;51.038;6.280;2023-05-09T10:27:21;21.10;78.10
25154;DHT22;47555;51.038;6.280;2023-05-09T10:30:00;21.10;78.30
25154;DHT22;47555;51.038;6.280;2023-05-09T10:32:52;21.00;73.90
25154;DHT22;47555;51.038;6.280;2023-05-09T10:35:22;20.90;75.00
25154;DHT22;47555;51.038;6.280;2023-05-09T10:37:49;20.80;72.50
25154;DHT22;47555;51.038;6.280;2023-05-09T10:40:15;20.80;74.00
25154;DHT22;47555;51.038;6.280;2023-05-09T10:42:42;20.70;73.00
25154;DHT22;47555;51.038;6.280;2023-05-09T10:45:12;20.60;73.90
25154;DHT22;47555;51.038;6.280;2023-05-09T10:47:39;20.50;74.80
25154;DHT22;47555;51.038;6.280;2023-05-09T10:50:07;20.40;75.50
25154;DHT22;47555;51.038;6.280;2023-05-09T10:52:33;20.60;79.00
25154;DHT22;47555;51.038;6.280;2023-05-09T10:55:00;20.70;77.90
25154;DHT22;47555;51.038;6.280;2023-05-09T10:57:28;20.80;78.40
25154;DHT22;47555;51.038;6.280;2023-05-09T10:59:55;20.90;77.30
25154;DHT22;47555;51.038;6.280;2023-05-09T11:02:21;20.90;74.80
25154;DHT22;47555;51.038;6.280;2023-05-09T11:05:16;20.90;73.50
25154;DHT22;47555;51.038;6.280;2023-05-09T11:07:42;20.80;73.20
25154;DHT22;47555;51.038;6.280;2023-05-09T11:10:09;20.70;74.20
25154;DHT22;47555;51.038;6.280;2023-05-09T11:13:01;20.60;77.30
25154;DHT22;47555;51.038;6.280;2023-05-09T11:15:28;20.60;77.10
25154;DHT22;47555;51.038;6.280;2023-05-09T11:18:05;20.50;79.60
25154;DHT22;47555;51.038;6.280;2023-05-09T11:20:33;20.40;81.40
25154;DHT22;47555;51.038;6.280;2023-05-09T11:23:00;20.20;83.60
25154;DHT22;47555;51.038;6.280;2023-05-09T11:25:28;20.10;86.10
25154;DHT22;47555;51.038;6.280;2023-05-09T11:27:59;19.90;88.90
25154;DHT22;47555;51.038;6.280;2023-05-09T11:30:34;19.80;91.10
25154;DHT22;47555;51.038;6.280;2023-05-09T11:33:00;19.60;90.40
25154;DHT22;47555;51.038;6.280;2023-05-09T11:35:27;19.40;91.80
25154;DHT22;47555;51.038;6.280;2023-05-09T11:37:59;19.40;95.10
25154;DHT22;47555;51.038;6.280;2023-05-09T11:40:26;19.30;96.40
25154;DHT22;47555;51.038;6.280;2023-05-09T11:42:54;19.20;97.50
25154;DHT22;47555;51.038;6.280;2023-05-09T11:45:21;19.00;97.60
25154;DHT22;47555;51.038;6.280;2023-05-09T11:47:47;19.00;96.90
25154;DHT22;47555;51.038;6.280;2023-05-09T11:50:15;18.90;99.00
25154;DHT22;47555;51.038;6.280;2023-05-09T11:52:41;18.90;99.90
25154;DHT22;47555;51.038;6.280;2023-05-09T11:55:09;18.90;99.90
25154;DHT22;47555;51.038;6.280;2023-05-09T11:57:41;19.00;99.90
25154;DHT22;47555;51.038;6.280;2023-05-09T12:00:08;19.00;99.90
25154;DHT22;47555;51.038;6.280;2023-05-09T12:02:35;19.10;99.90
25154;DHT22;47555;51.038;6.280;2023-05-09T12:05:09;19.20;99.90
25154;DHT22;47555;51.038;6.280;2023-05-09T12:07:36;19.20;99.90
25154;DHT22;47555;51.038;6.280;2023-05-09T12:12:33;19.30;99.90
25154;DHT22;47555;51.038;6.280;2023-05-09T12:15:05;19.30;99.90
25154;DHT22;47555;51.038;6.280;2023-05-09T12:17:31;19.40;99.90
25154;DHT22;47555;51.038;6.280;2023-05-09T12:19:58;19.40;99.90
25154;DHT22;47555;51.038;6.280;2023-05-09T12:22:24;19.40;99.90
25154;DHT22;47555;51.038;6.280;2023-05-09T12:24:50;19.50;99.90
25154;DHT22;47555;51.038;6.280;2023-05-09T12:27:15;19.40;99.90
25154;DHT22;47555;51.038;6.280;2023-05-09T12:29:43;19.40;99.90
25154;DHT22;47555;51.038;6.280;2023-05-09T12:32:11;19.30;99.90
25154;DHT22;47555;51.038;6.280;2023-05-09T12:34:37;19.20;99.90
25154;DHT22;47555;51.038;6.280;2023-05-09T12:37:02;19.10;99.90
25154;DHT22;47555;51.038;6.280;2023-05-09T12:39:30;19.10;99.90
25154;DHT22;47555;51.038;6.280;2023-05-09T12:41:55;19.00;99.90
25154;DHT22;47555;51.038;6.280;2023-05-09T12:44:22;18.90;99.90
25154;DHT22;47555;51.038;6.280;2023-05-09T12:46:59;18.90;99.90
25154;DHT22;47555;51.038;6.280;2023-05-09T12:49:26;18.80;99.90
25154;DHT22;47555;51.038;6.280;2023-05-09T12:51:52;18.60;99.90
25154;DHT22;47555;51.038;6.280;2023-05-09T12:54:28;18.50;99.90
25154;DHT22;47555;51.038;6.280;2023-05-09T12:56:55;18.40;99.90
25154;DHT22;47555;51.038;6.280;2023-05-09T12:59:28;18.30;99.90
25154;DHT22;47555;51.038;6.280;2023-05-09T13:01:59;18.10;99.90
25154;DHT22;47555;51.038;6.280;2023-05-09T13:04:26;18.00;99.90
25154;DHT22;47555;51.038;6.280;2023-05-09T13:06:56;18.00;99.90
25154;DHT22;47555;51.038;6.280;2023-05-09T13:09:25;17.90;99.90
25154;DHT22;47555;51.038;6.280;2023-05-09T13:11:51;17.90;99.90
25154;DHT22;47555;51.038;6.280;2023-05-09T13:14:19;17.90;99.90
25154;DHT22;47555;51.038;6.280;2023-05-09T13:16:44;17.80;99.90
25154;DHT22;47555;51.038;6.280;2023-05-09T13:19:10;17.80;99.90
25154;DHT22;47555;51.038;6.280;2023-05-09T13:21:36;17.80;99.90
25154;DHT22;47555;51.038;6.280;2023-05-09T13:24:05;17.70;99.90
25154;DHT22;47555;51.038;6.280;2023-05-09T13:26:31;17.70;99.90
25154;DHT22;47555;51.038;6.280;2023-05-09T13:28:57;17.60;99.90
25154;DHT22;47555;51.038;6.280;2023-05-09T13:31:23;17.60;99.90
25154;DHT22;47555;51.038;6.280;2023-05-09T13:33:49;17.60;99.90
25154;DHT22;47555;51.038;6.280;2023-05-09T13:36:15;17.60;99.90
25154;DHT22;47555;51.038;6.280;2023-05-09T13:38:40;17.60;99.90
25154;DHT22;47555;51.038;6.280;2023-05-09T13:41:10;17.50;99.90
25154;DHT22;47555;51.038;6.280;2023-05-09T13:43:37;17.50;99.90
25154;DHT22;47555;51.038;6.280;2023-05-09T13:46:03;17.60;99.90
25154;DHT22;47555;51.038;6.280;2023-05-09T13:48:28;17.50;99.90
25154;DHT22;47555;51.038;6.280;2023-05-09T13:50:53;17.50;99.90
25154;DHT22;47555;51.038;6.280;2023-05-09T13:53:21;17.50;99.90
25154;DHT22;47555;51.038;6.280;2023-05-09T13:55:47;17.50;99.90
25154;DHT22;47555;51.038;6.280;2023-05-09T13:58:12;17.50;99.90
25154;DHT22;47555;51.038;6.280;2023-05-09T14:00:38;17.50;99.90
25154;DHT22;47555;51.038;6.280;2023-05-09T14:03:03;17.50;99.90
25154;DHT22;47555;51.038;6.280;2023-05-09T14:05:32;17.50;99.90
25154;DHT22;47555;51.038;6.280;2023-05-09T14:07:58;17.50;99.90
25154;DHT22;47555;51.038;6.280;2023-05-09T14:10:25;17.40;99.90
25154;DHT22;47555;51.038;6.280;2023-05-09T14:12:51;17.30;99.90
25154;DHT22;47555;51.038;6.280;2023-05-09T14:15:17;17.30;99.90
25154;DHT22;47555;51.038;6.280;2023-05-09T14:17:43;17.30;99.90
25154;DHT22;47555;51.038;6.280;2023-05-09T14:20:09;17.20;99.90
25154;DHT22;47555;51.038;6.280;2023-05-09T14:22:34;17.20;99.90
25154;DHT22;47555;51.038;6.280;2023-05-09T14:25:00;17.20;99.90
25154;DHT22;47555;51.038;6.280;2023-05-09T14:27:26;17.20;99.90
25154;DHT22;47555;51.038;6.280;2023-05-09T14:29:51;17.10;99.90
25154;DHT22;47555;51.038;6.280;2023-05-09T14:32:17;17.00;99.90
25154;DHT22;47555;51.038;6.280;2023-05-09T14:34:42;16.90;99.90
25154;DHT22;47555;51.038;6.280;2023-05-09T14:37:09;16.90;99.90
25154;DHT22;47555;51.038;6.280;2023-05-09T14:39:42;16.80;99.90
25154;DHT22;47555;51.038;6.280;2023-05-09T14:42:08;16.70;99.90
25154;DHT22;47555;51.038;6.280;2023-05-09T14:44:39;16.70;99.90
25154;DHT22;47555;51.038;6.280;2023-05-09T14:47:04;16.70;99.90
25154;DHT22;47555;51.038;6.280;2023-05-09T14:49:30;16.50;99.90
25154;DHT22;47555;51.038;6.280;2023-05-09T14:51:56;16.40;99.90
25154;DHT22;47555;51.038;6.280;2023-05-09T14:54:21;16.30;99.90
25154;DHT22;47555;51.038;6.280;2023-05-09T14:56:48;16.30;99.90
25154;DHT22;47555;51.038;6.280;2023-05-09T14:59:13;16.20;99.90
25154;DHT22;47555;51.038;6.280;2023-05-09T15:01:39;16.20;99.90
25154;DHT22;47555;51.038;6.280;2023-05-09T15:04:05;16.20;99.90
25154;DHT22;47555;51.038;6.280;2023-05-09T15:06:30;16.10;99.90
25154;DHT22;47555;51.038;6.280;2023-05-09T15:08:56;16.10;99.90
25154;DHT22;47555;51.038;6.280;2023-05-09T15:11:22;16.10;99.90
25154;DHT22;47555;51.038;6.280;2023-05-09T15:13:47;16.00;99.90
25154;DHT22;47555;51.038;6.280;2023-05-09T15:16:16;15.90;99.90
25154;DHT22;47555;51.038;6.280;2023-05-09T15:18:41;15.80;99.90
25154;DHT22;47555;51.038;6.280;2023-05-09T15:21:10;15.70;99.90
25154;DHT22;47555;51.038;6.280;2023-05-09T15:23:36;15.60;99.90
25154;DHT22;47555;51.038;6.280;2023-05-09T15:26:02;15.50;99.90
25154;DHT22;47555;51.038;6.280;2023-05-09T15:28:27;15.40;99.90
25154;DHT22;47555;51.038;6.280;2023-05-09T15:30:53;15.30;99.90
25154;DHT22;47555;51.038;6.280;2023-05-09T15:33:18;15.30;99.90
25154;DHT22;47555;51.038;6.280;2023-05-09T15:35:44;15.30;99.90
25154;DHT22;47555;51.038;6.280;2023-05-09T15:38:11;15.30;99.90
25154;DHT22;47555;51.038;6.280;2023-05-09T15:40:38;15.20;99.90
25154;DHT22;47555;51.038;6.280;2023-05-09T15:43:04;15.30;99.90